Time;durP1;ratioP1;P1;durP2;ratioP2;P2;SDS_P1;SDS_P2;PMS_P1;PMS_P2;Temp;Humidity;BMP_temperature;BMP_pressure;BME280_temperature;BME280_humidity;BME280_pressure;Samples;Min_cycle;Max_cycle;Signal;HPM_P1;HPM_P2
2022/06/21 00:00:46;;;;;;;4.75;0.95;;;12.50;99.90;;;;;;5056065;28;20039;-78
2022/06/21 00:03:31;;;;;;;4.15;1.00;;;12.40;99.90;;;;;;5028368;28;20095;-78
2022/06/21 00:05:58;;;;;;;5.38;1.20;;;12.30;99.90;;;;;;5068600;28;20047;-78
2022/06/21 00:08:27;;;;;;;4.88;1.23;;;12.30;99.90;;;;;;5041183;28;20044;-78
2022/06/21 00:10:55;;;;;;;3.63;1.17;;;12.30;99.90;;;;;;5075987;28;20040;-78
2022/06/21 00:13:27;;;;;;;7.63;1.52;;;12.30;99.90;;;;;;5070985;28;20027;-78
2022/06/21 00:15:57;;;;;;;4.30;1.15;;;12.30;99.90;;;;;;5062274;28;20040;-79
2022/06/21 00:18:26;;;;;;;6.25;1.30;;;12.20;99.90;;;;;;5067846;28;20032;-78
2022/06/21 00:20:53;;;;;;;5.60;1.10;;;12.20;99.90;;;;;;5060109;28;20021;-78
2022/06/21 00:23:24;;;;;;;3.53;0.90;;;12.20;99.90;;;;;;5027632;28;20033;-78
2022/06/21 00:25:51;;;;;;;5.05;0.98;;;12.20;99.90;;;;;;5059062;28;20037;-79
2022/06/21 00:28:18;;;;;;;4.43;1.30;;;12.20;99.90;;;;;;5022986;28;20025;-78
2022/06/21 00:30:46;;;;;;;3.38;0.93;;;12.20;99.90;;;;;;5039387;28;20029;-78
2022/06/21 00:33:15;;;;;;;4.53;1.15;;;12.10;99.90;;;;;;5075501;28;20049;-78
2022/06/21 00:35:44;;;;;;;5.50;1.27;;;12.10;99.90;;;;;;5060490;28;20039;-78
2022/06/21 00:38:15;;;;;;;3.55;1.02;;;12.10;99.90;;;;;;5070578;28;21234;-78
2022/06/21 00:40:43;;;;;;;5.93;0.90;;;12.10;99.90;;;;;;5041630;28;20480;-78
2022/06/21 00:43:21;;;;;;;3.47;0.80;;;12.10;99.90;;;;;;5018658;28;20036;-78
2022/06/21 00:45:50;;;;;;;6.22;1.10;;;12.00;99.90;;;;;;5062730;28;20707;-78
2022/06/21 00:48:41;;;;;;;5.05;0.90;;;12.00;99.90;;;;;;5037107;28;20033;-78
2022/06/21 00:51:27;;;;;;;2.20;1.05;;;12.00;99.90;;;;;;5072077;28;20053;-78
2022/06/21 00:54:01;;;;;;;6.25;1.20;;;12.00;99.90;;;;;;5043320;28;20036;-78
2022/06/21 00:57:02;;;;;;;4.15;1.13;;;12.00;99.90;;;;;;5055395;28;20043;-78
2022/06/21 00:59:32;;;;;;;5.38;1.02;;;11.90;99.90;;;;;;5037892;28;20475;-78
2022/06/21 01:02:06;;;;;;;6.57;1.23;;;11.90;99.90;;;;;;5051367;28;20047;-78
2022/06/21 01:04:46;;;;;;;2.88;1.00;;;11.90;99.90;;;;;;5044113;28;20498;-78
2022/06/21 01:07:14;;;;;;;4.97;1.08;;;11.90;99.90;;;;;;5032816;28;20043;-78
2022/06/21 01:09:46;;;;;;;8.52;1.42;;;11.90;99.90;;;;;;5053858;28;20033;-78
2022/06/21 01:12:18;;;;;;;5.32;1.15;;;11.90;99.90;;;;;;5051705;28;20040;-78
2022/06/21 01:14:52;;;;;;;6.70;1.40;;;11.90;99.90;;;;;;5054563;28;20645;-78
2022/06/21 01:17:20;;;;;;;8.32;1.55;;;11.80;99.90;;;;;;5039320;28;20487;-78
2022/06/21 01:20:09;;;;;;;4.10;1.02;;;11.80;99.90;;;;;;5052611;28;20040;-78
2022/06/21 01:22:58;;;;;;;2.72;0.90;;;11.80;99.90;;;;;;5036885;28;20024;-78
2022/06/21 01:25:27;;;;;;;4.63;0.90;;;11.70;99.90;;;;;;5060275;28;20033;-79
2022/06/21 01:27:56;;;;;;;4.93;1.63;;;11.70;99.90;;;;;;5057846;28;20383;-78
2022/06/21 01:30:24;;;;;;;4.80;1.23;;;11.60;99.90;;;;;;5054455;28;20040;-78
2022/06/21 01:32:51;;;;;;;3.50;1.30;;;11.60;99.90;;;;;;5037045;28;20024;-79
2022/06/21 01:35:32;;;;;;;4.57;1.27;;;11.60;99.90;;;;;;5054079;28;20031;-78
2022/06/21 01:38:00;;;;;;;5.22;1.40;;;11.50;99.90;;;;;;5058117;28;20012;-79
2022/06/21 01:40:31;;;;;;;7.03;1.45;;;11.50;99.90;;;;;;5042482;28;20492;-79
2022/06/21 01:43:08;;;;;;;4.50;1.35;;;11.40;99.90;;;;;;5038603;28;20047;-78
2022/06/21 01:45:39;;;;;;;4.68;1.00;;;11.40;99.90;;;;;;5058448;28;20024;-78
2022/06/21 01:48:21;;;;;;;6.22;1.08;;;11.30;99.90;;;;;;5057311;28;20040;-78
2022/06/21 01:50:50;;;;;;;5.38;1.17;;;11.30;99.90;;;;;;5028174;28;20025;-78
2022/06/21 01:53:21;;;;;;;5.72;1.02;;;11.40;99.90;;;;;;5037015;28;20025;-78
2022/06/21 01:55:58;;;;;;;5.47;1.48;;;11.30;99.90;;;;;;5056251;28;20033;-78
2022/06/21 01:58:32;;;;;;;6.68;1.52;;;11.30;99.90;;;;;;5069471;28;20032;-79
2022/06/21 02:01:05;;;;;;;5.15;1.48;;;11.30;99.90;;;;;;5042559;28;20569;-79
2022/06/21 02:03:36;;;;;;;4.40;1.45;;;11.40;99.90;;;;;;5044228;28;20016;-78
2022/06/21 02:06:09;;;;;;;4.07;1.35;;;11.30;99.90;;;;;;5050965;28;20039;-78
2022/06/21 02:08:44;;;;;;;7.60;1.60;;;11.30;99.90;;;;;;5050345;28;20460;-78
2022/06/21 02:11:28;;;;;;;3.47;1.23;;;11.20;99.90;;;;;;5051875;28;20383;-78
2022/06/21 02:16:47;;;;;;;7.03;1.50;;;11.20;99.90;;;;;;5069397;28;20043;-78
2022/06/21 02:19:27;;;;;;;5.22;1.40;;;11.20;99.90;;;;;;5052908;28;20376;-79
2022/06/21 02:21:54;;;;;;;5.00;1.20;;;11.20;99.90;;;;;;5037802;28;20025;-78
2022/06/21 02:24:23;;;;;;;3.83;0.90;;;11.20;99.90;;;;;;5042684;28;20029;-78
2022/06/21 02:26:51;;;;;;;2.97;0.80;;;11.20;99.90;;;;;;5055361;28;20021;-78
2022/06/21 02:29:18;;;;;;;2.85;0.70;;;11.20;99.90;;;;;;5040905;28;20047;-79
2022/06/21 02:31:44;;;;;;;3.90;1.00;;;11.20;99.90;;;;;;5051512;28;20029;-78
2022/06/21 02:34:30;;;;;;;5.35;1.25;;;11.10;99.90;;;;;;5050812;28;20048;-79
2022/06/21 02:36:59;;;;;;;4.90;1.17;;;11.20;99.90;;;;;;5042821;28;21203;-79
2022/06/21 02:39:28;;;;;;;7.78;0.90;;;11.20;99.90;;;;;;5052905;28;20028;-78
2022/06/21 02:42:19;;;;;;;3.80;1.20;;;11.20;99.90;;;;;;5053552;28;20021;-78
2022/06/21 02:44:52;;;;;;;4.35;1.33;;;11.20;99.90;;;;;;5042731;28;20025;-79
2022/06/21 02:47:29;;;;;;;5.45;1.65;;;11.10;99.90;;;;;;5042372;28;20076;-79
2022/06/21 02:50:01;;;;;;;4.22;0.90;;;11.10;99.90;;;;;;5055108;28;20590;-79
2022/06/21 02:52:33;;;;;;;3.80;0.80;;;11.10;99.90;;;;;;5056673;28;20044;-78
2022/06/21 02:55:30;;;;;;;5.15;0.80;;;11.10;99.90;;;;;;5058326;28;20589;-79
2022/06/21 02:58:22;;;;;;;3.80;0.82;;;11.10;99.90;;;;;;5042618;28;20048;-79
2022/06/21 03:00:49;;;;;;;3.13;1.00;;;11.00;99.90;;;;;;5050626;28;20022;-79
2022/06/21 03:03:20;;;;;;;5.10;1.30;;;11.00;99.90;;;;;;5051799;28;20033;-80
2022/06/21 03:05:56;;;;;;;5.77;1.20;;;11.00;99.90;;;;;;5040118;28;20024;-79
2022/06/21 03:08:23;;;;;;;7.40;1.40;;;11.00;99.90;;;;;;5054337;28;20029;-79
2022/06/21 03:10:51;;;;;;;3.90;1.00;;;11.00;99.90;;;;;;5055262;28;20578;-79
2022/06/21 03:13:25;;;;;;;4.07;0.90;;;10.90;99.90;;;;;;5049659;28;20025;-79
2022/06/21 03:15:56;;;;;;;3.95;0.70;;;10.90;99.90;;;;;;5052068;28;20048;-79
2022/06/21 03:18:26;;;;;;;2.88;1.00;;;10.90;99.90;;;;;;5055182;28;20035;-79
2022/06/21 03:20:53;;;;;;;3.75;1.10;;;10.80;99.90;;;;;;5056297;28;20521;-79
2022/06/21 03:23:20;;;;;;;3.47;1.00;;;10.80;99.90;;;;;;5071718;28;20032;-79
2022/06/21 03:25:53;;;;;;;3.80;1.00;;;10.80;99.90;;;;;;5052149;28;20468;-78
2022/06/21 03:28:41;;;;;;;3.70;1.00;;;10.80;99.90;;;;;;5043793;28;20364;-78
2022/06/21 03:31:10;;;;;;;5.03;1.52;;;10.80;99.90;;;;;;5056144;28;20044;-78
2022/06/21 03:33:41;;;;;;;4.53;1.00;;;10.80;99.90;;;;;;5032506;28;20044;-78
2022/06/21 03:36:10;;;;;;;3.78;1.02;;;10.80;99.90;;;;;;5060169;28;20376;-79
2022/06/21 03:38:39;;;;;;;6.68;1.08;;;10.80;99.90;;;;;;5073754;28;20017;-79
2022/06/21 03:43:57;;;;;;;3.58;1.05;;;10.90;99.90;;;;;;5041563;28;20031;-79
2022/06/21 03:46:31;;;;;;;6.78;1.23;;;10.90;99.90;;;;;;5076906;28;20029;-79
2022/06/21 03:49:03;;;;;;;5.20;1.10;;;10.90;99.90;;;;;;5056086;28;20017;-79
2022/06/21 03:51:38;;;;;;;4.45;1.05;;;10.90;99.90;;;;;;5044723;28;20031;-79
2022/06/21 03:54:14;;;;;;;3.42;1.00;;;10.90;99.90;;;;;;5071389;28;20035;-79
2022/06/21 03:56:55;;;;;;;4.80;1.73;;;11.00;99.90;;;;;;5039394;28;20075;-79
2022/06/21 03:59:40;;;;;;;4.25;1.10;;;11.00;99.90;;;;;;5045573;28;20017;-79
2022/06/21 04:02:11;;;;;;;5.43;1.10;;;11.10;99.90;;;;;;5042179;28;20479;-79
2022/06/21 04:04:52;;;;;;;7.78;1.10;;;11.10;99.90;;;;;;5063175;28;20016;-79
2022/06/21 04:07:41;;;;;;;4.35;1.20;;;11.20;99.90;;;;;;5044909;28;20028;-79
2022/06/21 04:10:15;;;;;;;3.33;0.77;;;11.20;99.90;;;;;;5059728;28;20035;-79
2022/06/21 04:13:05;;;;;;;2.63;0.70;;;11.30;99.90;;;;;;5042727;28;20024;-79
2022/06/21 04:16:04;;;;;;;3.33;0.82;;;11.40;99.90;;;;;;5072178;28;20472;-79
2022/06/21 04:18:51;;;;;;;6.00;0.82;;;11.50;99.90;;;;;;5038575;28;20040;-79
2022/06/21 04:21:39;;;;;;;4.25;0.70;;;11.60;99.90;;;;;;5061460;28;20931;-79
2022/06/21 04:24:15;;;;;;;2.80;0.73;;;11.70;99.90;;;;;;5047648;28;20367;-79
2022/06/21 04:26:50;;;;;;;3.90;0.90;;;11.80;99.90;;;;;;5059121;28;20024;-79
2022/06/21 04:29:28;;;;;;;4.38;0.85;;;11.90;99.90;;;;;;5061233;28;20044;-79
2022/06/21 04:32:06;;;;;;;4.60;0.80;;;12.00;99.90;;;;;;5044389;28;20035;-79
2022/06/21 04:34:33;;;;;;;4.18;0.80;;;12.10;99.90;;;;;;5076225;28;20049;-79
2022/06/21 04:37:11;;;;;;;5.75;0.95;;;12.30;99.90;;;;;;5042871;28;20029;-79
2022/06/21 04:39:46;;;;;;;6.28;0.70;;;12.40;99.90;;;;;;5056850;28;20025;-75
2022/06/21 04:42:16;;;;;;;5.68;0.70;;;12.50;99.90;;;;;;5058964;28;20032;-78
2022/06/21 04:45:05;;;;;;;5.32;0.95;;;12.60;99.90;;;;;;5054827;28;20429;-78
2022/06/21 04:47:40;;;;;;;4.47;0.77;;;12.80;99.90;;;;;;5041903;28;20016;-77
2022/06/21 04:50:20;;;;;;;6.28;0.80;;;12.90;99.90;;;;;;5051876;28;20040;-76
2022/06/21 04:53:19;;;;;;;3.33;0.70;;;13.10;99.90;;;;;;5050980;28;20021;-77
2022/06/21 04:55:57;;;;;;;4.20;0.60;;;13.30;99.90;;;;;;5070339;28;20043;-77
2022/06/21 04:58:24;;;;;;;4.18;0.70;;;13.40;99.90;;;;;;5026019;28;20041;-74
2022/06/21 05:00:52;;;;;;;4.28;0.70;;;13.60;99.90;;;;;;5054985;28;20035;-76
2022/06/21 05:03:35;;;;;;;5.00;1.13;;;13.80;99.90;;;;;;5044700;28;20025;-77
2022/06/21 05:06:02;;;;;;;3.17;0.60;;;13.90;99.90;;;;;;5043842;28;20513;-75
2022/06/21 05:08:29;;;;;;;4.75;0.80;;;14.10;99.90;;;;;;5057336;28;20029;-77
2022/06/21 05:10:59;;;;;;;5.22;0.75;;;14.20;99.90;;;;;;5026735;28;20029;-78
2022/06/21 05:13:50;;;;;;;5.68;1.40;;;14.40;99.90;;;;;;5053946;28;20032;-77
2022/06/21 05:16:16;;;;;;;5.45;1.30;;;14.50;99.90;;;;;;5057673;28;20029;-77
2022/06/21 05:18:48;;;;;;;7.82;2.03;;;14.60;99.90;;;;;;5041837;28;20035;-77
2022/06/21 05:21:18;;;;;;;8.35;1.00;;;14.80;99.90;;;;;;5054434;28;20032;-77
2022/06/21 05:23:46;;;;;;;6.57;0.80;;;14.90;99.90;;;;;;5041880;28;20028;-77
2022/06/21 05:26:31;;;;;;;6.20;0.52;;;14.90;99.90;;;;;;5044514;28;20372;-77
2022/06/21 05:29:11;;;;;;;3.53;0.57;;;15.00;99.90;;;;;;5058071;28;20013;-78
2022/06/21 05:31:41;;;;;;;5.72;0.77;;;15.10;99.90;;;;;;5036440;28;20024;-77
2022/06/21 05:34:23;;;;;;;4.70;0.60;;;15.30;99.90;;;;;;5059580;28;20040;-79
2022/06/21 05:37:12;;;;;;;4.03;0.50;;;15.50;99.90;;;;;;5039977;28;20467;-77
2022/06/21 05:39:44;;;;;;;4.20;0.60;;;15.60;99.90;;;;;;5053246;28;20031;-75
2022/06/21 05:42:14;;;;;;;3.80;0.50;;;15.80;99.90;;;;;;5035927;28;20017;-77
2022/06/21 05:44:55;;;;;;;4.53;0.60;;;15.90;99.90;;;;;;5072583;28;20033;-79
2022/06/21 05:47:41;;;;;;;4.82;0.50;;;16.10;99.90;;;;;;5055528;28;20120;-81
2022/06/21 05:50:14;;;;;;;3.63;0.55;;;16.20;99.90;;;;;;5051155;28;20017;-82
2022/06/21 05:52:48;;;;;;;3.10;0.60;;;16.30;99.90;;;;;;5042629;28;20016;-79
2022/06/21 05:55:34;;;;;;;4.97;0.95;;;16.40;99.90;;;;;;5050978;28;20032;-80
2022/06/21 05:58:05;;;;;;;5.72;0.50;;;16.60;99.90;;;;;;5054536;28;20028;-81
2022/06/21 06:00:57;;;;;;;2.63;0.50;;;16.90;99.90;;;;;;5074966;28;20013;-80
2022/06/21 06:03:48;;;;;;;4.85;0.70;;;17.20;99.90;;;;;;5038529;28;20392;-80
2022/06/21 06:06:18;;;;;;;2.65;0.50;;;17.60;99.90;;;;;;5052717;28;20500;-83
2022/06/21 06:08:49;;;;;;;4.55;0.50;;;18.00;99.90;;;;;;5040904;28;20021;-80
2022/06/21 06:11:23;;;;;;;3.28;0.50;;;18.20;99.90;;;;;;5041122;28;20040;-80
2022/06/21 06:13:53;;;;;;;4.57;1.10;;;18.40;99.90;;;;;;5069290;28;20036;-82
2022/06/21 06:16:40;;;;;;;4.97;0.68;;;18.60;99.90;;;;;;5040934;28;20511;-81
2022/06/21 06:19:13;;;;;;;3.95;0.60;;;18.50;99.90;;;;;;5052406;28;20465;-82
2022/06/21 06:21:46;;;;;;;3.58;0.50;;;18.50;99.90;;;;;;5070830;28;20494;-82
2022/06/21 06:24:24;;;;;;;3.67;0.50;;;18.60;99.90;;;;;;5054765;28;20024;-82
2022/06/21 06:26:59;;;;;;;7.15;1.35;;;18.90;99.90;;;;;;5040964;28;20363;-82
2022/06/21 06:29:44;;;;;;;3.50;0.50;;;19.30;99.90;;;;;;5052242;28;20021;-82
2022/06/21 06:32:22;;;;;;;3.97;0.70;;;19.50;99.90;;;;;;5039712;28;20039;-82
2022/06/21 06:34:52;;;;;;;4.30;0.50;;;19.50;99.80;;;;;;5055359;28;20120;-82
2022/06/21 06:37:37;;;;;;;5.22;0.60;;;19.60;99.50;;;;;;5055281;28;20483;-83
2022/06/21 06:40:08;;;;;;;9.02;0.88;;;19.60;99.20;;;;;;5034698;28;20392;-82
2022/06/21 06:42:39;;;;;;;2.03;0.50;;;19.50;99.00;;;;;;5007244;28;20368;-82
2022/06/21 06:45:14;;;;;;;3.45;0.52;;;19.50;99.00;;;;;;5072808;28;20471;-83
2022/06/21 06:47:47;;;;;;;7.53;1.00;;;19.40;98.80;;;;;;5071376;28;20031;-83
2022/06/21 06:50:27;;;;;;;4.22;0.70;;;19.40;98.40;;;;;;5041204;28;20033;-81
2022/06/21 06:53:15;;;;;;;4.88;0.60;;;19.20;98.30;;;;;;5056968;28;20036;-81
2022/06/21 06:56:12;;;;;;;4.05;0.80;;;19.20;98.40;;;;;;5058167;28;20680;-82
2022/06/21 06:59:12;;;;;;;2.65;0.40;;;19.30;98.50;;;;;;5050577;28;20039;-81
2022/06/21 07:02:25;;;;;;;5.32;0.60;;;19.40;98.50;;;;;;5067583;28;20021;-81
2022/06/21 07:05:19;;;;;;;2.97;0.80;;;19.50;98.30;;;;;;5051405;28;20392;-82
2022/06/21 07:07:52;;;;;;;2.70;0.70;;;19.50;98.00;;;;;;5059568;28;20037;-81
2022/06/21 07:10:38;;;;;;;1.65;0.50;;;19.60;98.00;;;;;;5072836;28;20267;-82
2022/06/21 07:13:06;;;;;;;5.93;0.60;;;19.60;98.00;;;;;;5062557;28;20043;-81
2022/06/21 07:15:41;;;;;;;5.38;0.80;;;19.70;97.80;;;;;;5057515;28;20036;-82
2022/06/21 07:18:21;;;;;;;3.95;0.50;;;19.80;97.60;;;;;;5068970;28;20033;-82
2022/06/21 07:20:58;;;;;;;3.33;0.60;;;19.90;97.50;;;;;;5057939;28;20032;-82
2022/06/21 07:23:28;;;;;;;3.53;0.40;;;20.00;97.30;;;;;;5040368;28;20387;-81
2022/06/21 07:26:12;;;;;;;3.30;0.60;;;20.10;97.10;;;;;;5056968;28;20483;-82
2022/06/21 07:28:58;;;;;;;3.88;0.90;;;20.10;96.80;;;;;;5054733;28;20052;-82
2022/06/21 07:31:36;;;;;;;4.97;0.98;;;20.00;96.70;;;;;;5042996;28;20033;-83
2022/06/21 07:34:15;;;;;;;2.13;0.45;;;20.10;96.60;;;;;;5061372;28;20071;-82
2022/06/21 07:37:01;;;;;;;4.38;0.82;;;20.10;96.50;;;;;;5054772;28;20118;-82
2022/06/21 07:39:47;;;;;;;2.40;0.50;;;20.00;96.30;;;;;;5053763;28;20058;-84
2022/06/21 07:42:28;;;;;;;5.53;0.80;;;19.90;96.40;;;;;;5056007;28;20049;-84
2022/06/21 07:45:16;;;;;;;3.47;0.50;;;19.90;96.60;;;;;;5059615;28;20106;-84
2022/06/21 07:48:21;;;;;;;3.70;0.80;;;20.00;96.50;;;;;;5056269;28;20032;-83
2022/06/21 07:51:32;;;;;;;4.93;0.80;;;20.20;96.30;;;;;;5058275;28;20039;-84
2022/06/21 07:54:22;;;;;;;3.17;0.50;;;20.50;96.00;;;;;;5053789;28;20032;-83
2022/06/21 07:57:16;;;;;;;4.07;0.50;;;20.80;95.20;;;;;;5073643;28;20032;-82
2022/06/21 07:59:48;;;;;;;2.70;0.50;;;21.00;94.70;;;;;;5055665;28;20048;-83
2022/06/21 08:08:46;;;;;;;3.38;0.70;;;21.30;92.50;;;;;;5054575;28;20337;-83
2022/06/21 08:11:19;;;;;;;3.55;0.50;;;21.30;92.60;;;;;;5056096;28;20029;-82
2022/06/21 08:13:45;;;;;;;3.83;0.68;;;21.50;92.40;;;;;;5042080;28;20377;-83
2022/06/21 08:16:18;;;;;;;2.50;0.50;;;21.70;92.20;;;;;;5047430;28;20032;-83
2022/06/21 08:18:52;;;;;;;3.63;0.60;;;21.80;91.80;;;;;;5050239;28;20432;-83
2022/06/21 08:21:25;;;;;;;2.80;0.50;;;21.80;91.50;;;;;;5060871;28;20372;-82
2022/06/21 08:24:07;;;;;;;2.22;0.50;;;21.70;90.90;;;;;;5052680;28;20392;-83
2022/06/21 08:26:48;;;;;;;4.60;0.70;;;21.70;90.90;;;;;;5075672;28;20091;-83
2022/06/21 08:29:28;;;;;;;2.22;0.60;;;21.70;91.20;;;;;;5051150;28;20499;-82
2022/06/21 08:32:02;;;;;;;3.25;0.60;;;21.80;91.00;;;;;;5054362;28;20017;-82
2022/06/21 08:34:42;;;;;;;4.13;0.60;;;22.00;90.90;;;;;;5053178;28;20366;-82
2022/06/21 08:37:37;;;;;;;4.38;0.93;;;22.20;90.50;;;;;;5068484;28;20029;-79
2022/06/21 08:40:14;;;;;;;3.22;0.80;;;22.30;90.20;;;;;;5067482;28;20036;-79
2022/06/21 08:42:46;;;;;;;2.85;0.45;;;22.30;90.10;;;;;;5031425;28;20037;-79
2022/06/21 08:45:45;;;;;;;5.22;0.77;;;22.50;90.10;;;;;;5059350;28;20115;-79
2022/06/21 08:48:39;;;;;;;2.40;0.45;;;22.80;89.20;;;;;;5027817;28;20040;-79
2022/06/21 08:51:42;;;;;;;3.72;0.75;;;23.00;88.10;;;;;;5054556;28;20054;-79
2022/06/21 08:54:29;;;;;;;2.42;0.50;;;22.90;86.60;;;;;;5041209;28;20029;-79
2022/06/21 08:57:07;;;;;;;5.95;1.30;;;22.70;86.40;;;;;;5076072;28;20025;-79
2022/06/21 08:59:52;;;;;;;5.18;0.73;;;22.60;86.10;;;;;;5075783;28;20032;-80
2022/06/21 09:02:30;;;;;;;3.05;0.70;;;22.60;85.40;;;;;;5053953;28;20028;-80
2022/06/21 09:05:11;;;;;;;2.90;0.60;;;22.60;85.10;;;;;;5044536;28;20039;-80
2022/06/21 09:08:02;;;;;;;3.20;0.60;;;22.70;84.90;;;;;;5065855;28;20028;-80
2022/06/21 09:10:40;;;;;;;1.83;0.35;;;22.70;84.60;;;;;;5059987;28;20488;-80
2022/06/21 09:13:35;;;;;;;1.50;0.45;;;22.90;84.60;;;;;;5055945;28;20027;-80
2022/06/21 09:16:07;;;;;;;3.50;0.43;;;23.10;82.70;;;;;;5051708;28;20047;-80
2022/06/21 09:19:07;;;;;;;2.03;0.60;;;23.20;82.60;;;;;;5054861;28;20024;-80
2022/06/21 09:21:45;;;;;;;1.67;0.47;;;23.40;81.80;;;;;;5055877;28;20436;-80
2022/06/21 09:24:37;;;;;;;3.75;0.63;;;23.50;81.50;;;;;;5057851;28;20468;-79
2022/06/21 09:27:25;;;;;;;2.92;0.40;;;23.50;81.00;;;;;;5030093;28;20041;-79
2022/06/21 09:30:09;;;;;;;1.33;0.40;;;23.60;80.10;;;;;;5075765;28;20029;-79
2022/06/21 09:32:50;;;;;;;1.75;0.35;;;23.60;78.90;;;;;;5039789;28;20028;-79
2022/06/21 09:35:38;;;;;;;1.23;0.30;;;23.70;78.40;;;;;;5059528;28;20068;-80
2022/06/21 09:38:17;;;;;;;2.10;0.40;;;23.90;77.70;;;;;;5059980;28;20043;-79
2022/06/21 09:41:08;;;;;;;1.38;0.30;;;24.00;76.80;;;;;;5057452;28;20044;-80
2022/06/21 09:44:16;;;;;;;1.42;0.30;;;24.10;77.10;;;;;;5045858;28;20024;-82
2022/06/21 09:47:33;;;;;;;2.30;0.50;;;24.30;76.20;;;;;;4977087;28;20037;-81
2022/06/21 09:50:16;;;;;;;1.13;0.30;;;24.40;75.40;;;;;;5019437;28;20045;-81
2022/06/21 09:53:24;;;;;;;1.48;0.40;;;24.50;74.00;;;;;;5040037;28;20047;-81
2022/06/21 09:56:00;;;;;;;0.95;0.32;;;24.40;73.00;;;;;;5054938;28;20029;-81
2022/06/21 09:58:51;;;;;;;1.23;0.20;;;24.30;72.10;;;;;;5071378;28;20032;-79
2022/06/21 10:01:25;;;;;;;0.93;0.20;;;24.30;72.10;;;;;;5059046;28;20032;-80
2022/06/21 10:04:31;;;;;;;1.10;0.20;;;24.40;70.80;;;;;;5056944;28;20452;-80
2022/06/21 10:07:37;;;;;;;1.88;0.40;;;24.50;68.40;;;;;;5056004;28;20379;-80
2022/06/21 10:10:30;;;;;;;1.33;0.40;;;24.40;67.50;;;;;;5055262;28;20024;-80
2022/06/21 10:13:30;;;;;;;2.92;0.40;;;24.50;68.00;;;;;;5035537;28;20025;-80
2022/06/21 10:16:11;;;;;;;1.90;0.43;;;24.50;68.40;;;;;;5058420;28;20421;-80
2022/06/21 10:19:04;;;;;;;1.48;0.30;;;24.50;67.90;;;;;;5057461;28;20040;-77
2022/06/21 10:22:10;;;;;;;6.20;0.50;;;24.60;68.00;;;;;;5048407;28;20040;-80
2022/06/21 10:24:54;;;;;;;1.45;0.40;;;24.80;66.70;;;;;;5071302;28;20025;-80
2022/06/21 10:27:49;;;;;;;2.63;0.70;;;25.10;65.90;;;;;;5044427;28;20047;-80
2022/06/21 10:30:25;;;;;;;3.08;1.33;;;25.40;64.30;;;;;;5036630;28;20021;-80
2022/06/21 10:33:13;;;;;;;3.22;0.47;;;25.60;63.20;;;;;;5069592;28;20036;-80
2022/06/21 10:36:01;;;;;;;1.20;0.30;;;25.60;62.70;;;;;;5053371;28;20029;-82
2022/06/21 10:39:15;;;;;;;2.88;0.45;;;25.60;63.20;;;;;;5058352;28;20041;-81
2022/06/21 10:45:31;;;;;;;1.15;0.20;;;25.90;62.80;;;;;;5061021;28;20376;-82
2022/06/21 10:48:35;;;;;;;1.40;0.30;;;26.10;63.00;;;;;;5028417;28;20036;-81
2022/06/21 10:51:07;;;;;;;1.45;0.40;;;26.20;63.00;;;;;;5043045;28;20041;-82
2022/06/21 10:54:19;;;;;;;1.35;0.50;;;26.30;62.50;;;;;;5030893;28;20032;-81
2022/06/21 10:57:18;;;;;;;3.05;0.40;;;26.40;62.30;;;;;;5057966;28;20049;-82
2022/06/21 11:03:30;;;;;;;1.25;0.40;;;27.00;61.60;;;;;;5059616;28;20597;-81
2022/06/21 11:06:29;;;;;;;2.13;0.20;;;27.40;60.40;;;;;;5058492;28;20048;-81
2022/06/21 11:09:24;;;;;;;1.73;0.20;;;27.80;59.50;;;;;;5043527;28;20033;-80
2022/06/21 11:15:33;;;;;;;1.60;0.28;;;28.40;57.90;;;;;;5057482;28;20036;-82
2022/06/21 11:18:18;;;;;;;1.15;0.30;;;28.60;56.90;;;;;;5068772;28;20029;-81
2022/06/21 11:21:12;;;;;;;1.10;0.30;;;28.30;56.60;;;;;;5055782;28;20621;-80
2022/06/21 11:23:44;;;;;;;1.55;0.30;;;28.30;57.00;;;;;;5057231;28;20025;-80
2022/06/21 11:26:26;;;;;;;1.98;0.30;;;28.40;56.40;;;;;;5057479;28;20033;-80
2022/06/21 11:29:18;;;;;;;1.17;0.30;;;28.50;56.10;;;;;;5058370;28;20040;-80
2022/06/21 11:32:12;;;;;;;2.45;0.30;;;28.50;56.30;;;;;;5038544;28;20028;-80
2022/06/21 11:34:38;;;;;;;1.13;0.20;;;28.40;55.70;;;;;;5040005;28;20499;-80
2022/06/21 11:37:14;;;;;;;1.17;0.20;;;28.30;55.20;;;;;;5058627;28;20372;-79
2022/06/21 11:40:02;;;;;;;1.10;0.20;;;28.20;54.90;;;;;;5039872;28;20036;-80
2022/06/21 11:42:49;;;;;;;1.83;0.30;;;28.00;54.60;;;;;;5057854;28;20029;-79
2022/06/21 11:45:46;;;;;;;1.52;0.60;;;27.90;54.40;;;;;;5044782;28;20033;-79
2022/06/21 11:48:13;;;;;;;2.70;2.10;;;27.80;53.90;;;;;;5072923;28;20044;-80
2022/06/21 11:51:14;;;;;;;1.77;0.50;;;28.20;54.10;;;;;;5058499;28;20032;-79
2022/06/21 11:53:50;;;;;;;2.28;0.50;;;29.00;52.90;;;;;;5059808;28;20012;-82
2022/06/21 11:56:49;;;;;;;2.08;0.30;;;29.80;50.50;;;;;;5055068;28;20028;-78
2022/06/21 11:59:32;;;;;;;3.53;0.32;;;30.30;48.60;;;;;;5056906;28;21428;-78
2022/06/21 12:02:14;;;;;;;0.82;0.20;;;30.40;47.50;;;;;;5074869;28;20368;-78
2022/06/21 12:04:55;;;;;;;1.63;0.20;;;30.60;47.70;;;;;;5057950;28;20021;-78
2022/06/21 12:07:28;;;;;;;;;;;30.80;46.80;;;;;;5073330;28;20122;-77
2022/06/21 12:10:10;;;;;;;2.42;0.30;;;30.80;46.40;;;;;;5054363;28;19904;-78
2022/06/21 12:13:21;;;;;;;1.35;0.22;;;31.00;46.00;;;;;;5054424;28;20031;-77
2022/06/21 12:16:20;;;;;;;2.35;0.28;;;30.90;45.30;;;;;;5058199;28;20028;-77
2022/06/21 12:19:00;;;;;;;2.65;0.98;;;30.90;43.90;;;;;;5057313;28;20078;-77
2022/06/21 12:21:32;;;;;;;1.27;0.60;;;31.10;45.10;;;;;;5073260;28;20020;-77
2022/06/21 12:24:04;;;;;;;7.78;6.95;;;31.40;45.60;;;;;;5059767;28;20032;-77
2022/06/21 12:26:33;;;;;;;2.58;1.08;;;31.60;45.80;;;;;;5053488;28;20047;-76
2022/06/21 12:29:05;;;;;;;1.10;0.32;;;31.60;45.80;;;;;;5054629;28;20013;-77
2022/06/21 12:31:39;;;;;;;2.50;0.70;;;31.30;46.10;;;;;;5058987;28;20016;-77
2022/06/21 12:34:13;;;;;;;2.15;0.50;;;30.80;46.60;;;;;;5056035;28;20039;-77
2022/06/21 12:36:48;;;;;;;2.17;0.50;;;30.20;46.90;;;;;;5057325;28;20020;-77
2022/06/21 12:39:42;;;;;;;5.22;2.95;;;30.00;47.90;;;;;;5050097;28;20023;-77
2022/06/21 12:42:29;;;;;;;1.85;0.50;;;30.10;48.50;;;;;;5054182;28;20710;-81
2022/06/21 12:45:02;;;;;;;1.10;0.35;;;30.40;48.00;;;;;;5055188;28;20306;-82
2022/06/21 12:47:54;;;;;;;2.75;0.30;;;30.70;47.20;;;;;;5059190;28;20040;-79
2022/06/21 12:50:53;;;;;;;2.00;0.20;;;30.80;47.00;;;;;;5059268;28;20039;-80
2022/06/21 12:53:43;;;;;;;1.23;0.30;;;31.00;46.90;;;;;;5056300;28;20098;-78
2022/06/21 12:56:28;;;;;;;1.10;0.25;;;31.30;46.20;;;;;;5039097;28;20033;-81
2022/06/21 12:59:03;;;;;;;1.42;0.30;;;31.70;45.70;;;;;;5055693;28;20119;-80
2022/06/21 13:02:04;;;;;;;1.55;0.20;;;32.10;45.10;;;;;;5042135;28;20045;-81
2022/06/21 13:05:02;;;;;;;0.77;0.20;;;32.40;44.30;;;;;;5019639;28;20025;-80
2022/06/21 13:08:07;;;;;;;1.65;0.30;;;32.10;44.10;;;;;;5065371;28;20052;-81
2022/06/21 13:10:51;;;;;;;1.23;0.30;;;31.70;43.80;;;;;;5057576;28;20043;-79
2022/06/21 13:13:57;;;;;;;0.93;0.30;;;31.20;44.50;;;;;;5071255;28;20037;-83
2022/06/21 13:17:12;;;;;;;1.02;0.40;;;31.00;44.90;;;;;;5053624;28;20471;-84
2022/06/21 13:19:59;;;;;;;3.33;0.30;;;30.30;45.40;;;;;;4996866;28;20517;-84
2022/06/21 13:23:24;;;;;;;3.60;0.40;;;29.60;46.50;;;;;;5040172;28;20025;-80
2022/06/21 13:26:23;;;;;;;1.85;0.38;;;28.80;47.10;;;;;;5013626;28;20033;-81
2022/06/21 13:29:20;;;;;;;1.27;0.20;;;28.30;47.40;;;;;;4999123;28;20029;-78
2022/06/21 13:31:53;;;;;;;1.83;0.30;;;27.90;48.40;;;;;;5056558;28;20029;-80
2022/06/21 13:34:34;;;;;;;1.98;0.40;;;27.70;49.00;;;;;;5057344;28;20037;-77
2022/06/21 13:37:12;;;;;;;1.55;0.20;;;27.70;49.60;;;;;;5041725;28;20025;-78
2022/06/21 13:39:59;;;;;;;1.85;0.40;;;27.70;49.50;;;;;;5041297;28;20024;-79
2022/06/21 13:42:40;;;;;;;1.85;0.45;;;27.60;49.70;;;;;;5036964;28;20029;-77
2022/06/21 13:45:10;;;;;;;1.65;0.30;;;27.70;49.80;;;;;;5053989;28;20036;-77
2022/06/21 13:48:12;;;;;;;0.70;0.20;;;27.60;48.90;;;;;;5042388;28;20036;-78
2022/06/21 13:51:08;;;;;;;2.25;0.40;;;27.50;49.20;;;;;;5056043;28;20059;-78
2022/06/21 13:53:47;;;;;;;1.73;0.30;;;27.40;49.70;;;;;;5051366;28;20013;-76
2022/06/21 13:56:14;;;;;;;1.38;0.20;;;27.50;50.10;;;;;;5056363;28;20032;-77
2022/06/21 13:58:44;;;;;;;3.58;0.30;;;27.50;50.10;;;;;;5051410;28;20025;-79
2022/06/21 14:01:48;;;;;;;2.53;0.32;;;27.50;50.30;;;;;;5056977;28;20499;-78
2022/06/21 14:04:31;;;;;;;2.00;0.50;;;27.50;50.90;;;;;;5014856;28;20459;-80
2022/06/21 14:07:04;;;;;;;1.15;0.32;;;27.60;51.10;;;;;;5056527;28;20020;-78
2022/06/21 14:09:38;;;;;;;4.18;0.40;;;27.80;50.50;;;;;;5053948;28;20031;-77
2022/06/21 14:12:32;;;;;;;2.88;0.45;;;27.90;51.10;;;;;;5057164;28;20035;-79
2022/06/21 14:15:35;;;;;;;2.03;0.40;;;28.30;50.40;;;;;;5059902;28;20032;-80
2022/06/21 14:18:04;;;;;;;6.45;0.60;;;29.30;49.10;;;;;;5058471;28;20506;-79
2022/06/21 14:20:40;;;;;;;2.20;0.50;;;29.60;48.10;;;;;;5055861;28;20399;-81